createdAt,value
2019-02-07T07:16:37.439Z,23.55
2019-02-07T07:19:24.158Z,18.77
2019-02-07T07:22:13.165Z,22.93
2019-02-07T07:24:59.590Z,19.48
2019-02-07T07:27:53.608Z,18.67
2019-02-07T07:30:48.512Z,21.37
2019-02-07T07:33:35.014Z,23.00
2019-02-07T07:36:29.422Z,19.47
2019-02-07T07:39:26.233Z,19.33
2019-02-07T07:42:12.990Z,18.77
2019-02-07T07:44:59.684Z,20.20
2019-02-07T07:47:46.751Z,21.37
2019-02-07T07:50:47.052Z,19.60
2019-02-07T07:53:35.238Z,19.67
2019-02-07T07:56:20.083Z,18.33
2019-02-07T07:59:06.600Z,19.27
2019-02-07T08:01:53.602Z,17.70
2019-02-07T08:04:50.694Z,21.60
2019-02-07T08:07:38.494Z,19.57
2019-02-07T08:10:30.627Z,20.37
2019-02-07T08:13:21.097Z,18.93
2019-02-07T08:16:23.380Z,20.67
2019-02-07T08:19:10.009Z,19.70
2019-02-07T08:21:53.022Z,19.77
2019-02-07T08:24:34.986Z,18.57
2019-02-07T08:27:21.844Z,20.20
2019-02-07T08:30:02.266Z,19.20
2019-02-07T08:32:44.550Z,18.57
2019-02-07T08:35:35.585Z,20.70
2019-02-07T08:38:30.801Z,18.47
2019-02-07T08:41:24.428Z,20.03
2019-02-07T08:44:15.312Z,20.33
2019-02-07T08:47:01.830Z,18.23
2019-02-07T08:49:49.149Z,17.67
2019-02-07T08:52:32.844Z,17.80
2019-02-07T08:55:21.886Z,21.23
2019-02-07T08:58:00.625Z,18.40
2019-02-07T09:00:36.894Z,20.57
2019-02-07T09:03:23.641Z,18.33
2019-02-07T09:06:08.045Z,19.87
2019-02-07T09:08:50.679Z,18.67
2019-02-07T09:11:37.245Z,17.03
2019-02-07T09:14:31.045Z,17.27
2019-02-07T09:17:06.797Z,18.17
2019-02-07T09:19:54.612Z,15.27
2019-02-07T09:22:34.477Z,17.33
2019-02-07T09:25:13.200Z,15.67
2019-02-07T09:28:10.456Z,16.53
2019-02-07T09:31:00.716Z,17.00
2019-02-07T09:33:46.784Z,17.70
2019-02-07T09:36:31.813Z,17.47
2019-02-07T09:39:18.698Z,15.90
2019-02-07T09:41:56.716Z,16.57
2019-02-07T09:44:42.619Z,17.17
2019-02-07T09:47:21.939Z,17.63
2019-02-07T09:50:24.995Z,16.87
2019-02-07T09:53:01.837Z,15.83
2019-02-07T09:55:39.003Z,17.03
2019-02-07T09:58:26.645Z,16.20
2019-02-07T10:01:20.498Z,15.30
2019-02-07T10:04:03.841Z,17.00
2019-02-07T10:06:43.461Z,14.57
2019-02-07T10:09:23.220Z,18.43
2019-02-07T10:12:22.881Z,14.27
2019-02-07T10:15:14.357Z,15.93
2019-02-07T10:18:03.822Z,15.77
2019-02-07T10:20:46.372Z,17.90
2019-02-07T10:23:25.089Z,17.77
2019-02-07T10:26:12.296Z,19.30
2019-02-07T10:28:59.146Z,19.03
2019-02-07T10:31:45.621Z,16.87
2019-02-07T10:34:32.336Z,16.37
2019-02-07T10:37:20.108Z,15.53
2019-02-07T10:40:16.913Z,17.93
2019-02-07T10:42:56.504Z,17.23
2019-02-07T10:45:43.763Z,17.90
2019-02-07T10:48:30.032Z,16.13
2019-02-07T10:51:05.492Z,16.93
2019-02-07T10:53:43.676Z,17.30
2019-02-07T10:56:31.476Z,17.70
2019-02-07T10:59:31.308Z,19.00
2019-02-07T11:02:17.730Z,16.30
2019-02-07T11:05:09.505Z,17.47
2019-02-07T11:07:56.268Z,16.07
2019-02-07T11:10:44.061Z,17.70
2019-02-07T11:13:32.774Z,16.43
2019-02-07T11:16:24.703Z,18.77
2019-02-07T11:19:30.798Z,16.63
2019-02-07T11:22:17.462Z,19.30
2019-02-07T11:25:03.703Z,17.53
2019-02-07T11:27:42.727Z,18.93
2019-02-07T11:30:42.561Z,18.97
2019-02-07T11:33:29.212Z,18.70
2019-02-07T11:36:17.010Z,22.63
2019-02-07T11:39:03.858Z,19.17
2019-02-07T11:41:46.372Z,20.77
2019-02-07T11:44:51.305Z,19.67
2019-02-07T11:47:42.729Z,19.53
2019-02-07T11:50:29.277Z,23.13
2019-02-07T11:53:17.173Z,23.20
2019-02-07T11:55:56.014Z,23.43
2019-02-07T11:58:35.942Z,20.40
2019-02-07T12:01:36.530Z,21.37
2019-02-07T12:04:23.610Z,23.37
2019-02-07T12:07:10.470Z,20.03
2019-02-07T12:10:07.542Z,19.50
2019-02-07T12:12:45.059Z,21.93
2019-02-07T12:15:32.294Z,22.23
2019-02-07T12:18:11.817Z,23.13
2019-02-07T12:21:18.168Z,22.97
2019-02-07T12:23:56.490Z,23.63
2019-02-07T12:26:44.376Z,24.00
2019-02-07T12:29:27.241Z,18.93
2019-02-07T12:32:09.567Z,20.77
2019-02-07T12:34:49.704Z,23.97
2019-02-07T12:37:38.976Z,19.43
2019-02-07T12:40:37.712Z,23.07
2019-02-07T12:43:19.669Z,21.83
2019-02-07T12:46:06.778Z,26.20
2019-02-07T12:48:42.114Z,22.43
2019-02-07T12:51:21.869Z,24.43
2019-02-07T12:54:08.679Z,20.50
2019-02-07T12:56:59.181Z,22.33
2019-02-07T12:59:53.018Z,20.73
2019-02-07T13:03:12.245Z,21.23
2019-02-07T13:06:08.445Z,20.37
2019-02-07T13:08:58.456Z,19.37
2019-02-07T13:11:46.396Z,20.30
2019-02-07T13:14:33.255Z,24.87
2019-02-07T13:17:20.088Z,21.17
2019-02-07T13:20:02.423Z,23.03
2019-02-07T13:22:56.141Z,19.33
2019-02-07T13:25:42.670Z,21.83
2019-02-07T13:28:22.175Z,20.83
2019-02-07T13:31:08.717Z,20.00
2019-02-07T13:33:45.091Z,19.70
2019-02-07T13:36:28.466Z,24.40
2019-02-07T13:39:06.016Z,19.93
2019-02-07T13:41:53.792Z,22.43
2019-02-07T13:44:51.010Z,20.87
2019-02-07T13:47:38.868Z,23.10
2019-02-07T13:50:26.681Z,22.63
2019-02-07T13:53:13.432Z,23.90
2019-02-07T13:56:03.044Z,23.87
2019-02-07T13:58:38.703Z,22.87
2019-02-07T14:01:26.548Z,22.70
2019-02-07T14:04:13.460Z,23.13
2019-02-07T14:06:53.395Z,22.87
2019-02-07T14:09:48.720Z,26.53
2019-02-07T14:12:35.176Z,21.03
2019-02-07T14:15:23.172Z,21.83
2019-02-07T14:18:10.880Z,26.10
2019-02-07T14:20:58.297Z,26.13
2019-02-07T14:23:44.981Z,23.00
2019-02-07T14:26:32.760Z,27.70
2019-02-07T14:29:19.924Z,23.80
2019-02-07T14:32:10.776Z,28.00
2019-02-07T14:35:01.712Z,25.60
2019-02-07T14:37:47.648Z,22.53
2019-02-07T14:40:35.526Z,26.90
2019-02-07T14:43:32.500Z,26.90
2019-02-07T14:46:14.144Z,28.67
2019-02-07T14:48:45.191Z,28.47
2019-02-07T14:51:13.216Z,27.23
2019-02-07T14:53:41.979Z,26.60
2019-02-07T14:56:10.645Z,26.67
2019-02-07T14:58:39.329Z,24.60
2019-02-07T15:01:08.441Z,29.13
2019-02-07T15:03:37.130Z,29.00
2019-02-07T15:06:05.966Z,25.73
2019-02-07T15:08:34.640Z,27.53
2019-02-07T15:11:03.386Z,29.43
2019-02-07T15:13:32.066Z,28.80
2019-02-07T15:16:00.741Z,25.80
2019-02-07T15:18:29.498Z,27.93
2019-02-07T15:20:58.244Z,29.67
2019-02-07T15:23:27.006Z,28.97
2019-02-07T15:25:55.681Z,30.03
2019-02-07T15:28:24.349Z,26.43
2019-02-07T15:30:53.166Z,25.63
2019-02-07T15:33:22.219Z,30.57
2019-02-07T15:35:51.688Z,28.93
2019-02-07T15:38:20.451Z,27.13
2019-02-07T15:40:49.991Z,27.20
2019-02-07T15:43:18.724Z,29.37
2019-02-07T15:45:47.400Z,26.77
2019-02-07T15:48:16.549Z,25.97
2019-02-07T15:50:45.383Z,28.17
2019-02-07T15:53:14.198Z,23.80
2019-02-07T15:55:42.889Z,26.90
2019-02-07T15:58:11.549Z,27.93
2019-02-07T16:01:08.435Z,26.17
2019-02-07T16:03:47.830Z,28.10
2019-02-07T16:06:16.585Z,26.43
2019-02-07T16:08:45.256Z,26.60
2019-02-07T16:11:14.409Z,22.60
2019-02-07T16:13:43.085Z,26.17
2019-02-07T16:16:11.845Z,26.00
2019-02-07T16:18:41.935Z,22.77
2019-02-07T16:21:10.889Z,26.33
2019-02-07T16:23:39.625Z,36.30
2019-02-07T16:26:08.851Z,24.13
2019-02-07T16:28:37.517Z,24.97
2019-02-07T16:31:06.555Z,26.57
2019-02-07T16:33:35.228Z,30.33
2019-02-07T16:36:04.635Z,24.83
2019-02-07T16:38:33.380Z,30.53
2019-02-07T16:41:02.071Z,26.77
2019-02-07T16:43:31.062Z,26.67
2019-02-07T16:45:59.749Z,26.47
2019-02-07T16:48:28.515Z,26.53
2019-02-07T16:51:00.273Z,26.67
2019-02-07T16:53:27.670Z,26.73
2019-02-07T16:55:56.420Z,26.67
2019-02-07T16:58:25.088Z,34.40
2019-02-07T17:00:53.966Z,29.73
2019-02-07T17:03:22.661Z,35.50
2019-02-07T17:05:51.428Z,30.17
2019-02-07T17:08:20.122Z,34.23
2019-02-07T17:10:49.192Z,31.90
2019-02-07T17:13:18.140Z,29.57
2019-02-07T17:15:47.000Z,34.77
2019-02-07T17:18:15.674Z,30.60
2019-02-07T17:20:44.360Z,27.93
2019-02-07T17:23:13.118Z,31.97
2019-02-07T17:25:41.933Z,26.30
2019-02-07T17:28:11.101Z,31.20
2019-02-07T17:30:39.870Z,30.97
2019-02-07T17:33:08.550Z,30.13
2019-02-07T17:35:37.304Z,31.10
2019-02-07T17:38:06.129Z,28.53
2019-02-07T17:40:34.822Z,28.10
2019-02-07T17:43:03.669Z,29.60
2019-02-07T17:45:32.776Z,24.93
2019-02-07T17:48:01.501Z,28.60
2019-02-07T17:50:32.131Z,32.23
2019-02-07T17:53:01.837Z,28.70
2019-02-07T17:55:30.510Z,29.47
2019-02-07T17:57:59.186Z,28.60
2019-02-07T18:00:46.151Z,26.03
2019-02-07T18:03:14.875Z,30.10
2019-02-07T18:05:43.883Z,27.70
2019-02-07T18:08:12.632Z,29.97
2019-02-07T18:10:41.489Z,28.03
2019-02-07T18:13:10.610Z,27.67
2019-02-07T18:15:39.352Z,27.00
2019-02-07T18:18:08.273Z,32.17
2019-02-07T18:20:36.945Z,28.57
2019-02-07T18:23:05.860Z,27.23
2019-02-07T18:25:34.605Z,31.43
2019-02-07T18:28:03.920Z,29.87
2019-02-07T18:30:32.729Z,29.17
2019-02-07T18:33:01.406Z,26.53
2019-02-07T18:35:30.190Z,27.27
2019-02-07T18:37:58.865Z,26.43
2019-02-07T18:40:28.053Z,28.33
2019-02-07T18:42:56.738Z,26.87
2019-02-07T18:45:25.480Z,29.17
2019-02-07T18:47:54.234Z,29.67
2019-02-07T18:50:31.220Z,27.87
2019-02-07T18:52:59.983Z,27.87
2019-02-07T18:55:28.717Z,31.13
2019-02-07T18:57:57.549Z,31.07
2019-02-07T19:00:28.394Z,27.27
2019-02-07T19:02:57.221Z,32.20
2019-02-07T19:05:25.897Z,38.03
2019-02-07T19:07:54.594Z,28.77
2019-02-07T19:10:24.137Z,29.47
2019-02-07T19:12:52.821Z,30.70
2019-02-07T19:15:27.453Z,31.57
2019-02-07T19:17:56.231Z,28.60
2019-02-07T19:20:24.962Z,31.17
2019-02-07T19:22:53.748Z,35.37
2019-02-07T19:25:22.420Z,34.47
2019-02-07T19:27:51.112Z,30.77
2019-02-07T19:30:28.380Z,33.30
2019-02-07T19:32:57.717Z,36.13
2019-02-07T19:35:26.587Z,35.20
2019-02-07T19:37:55.416Z,36.47
2019-02-07T19:40:24.162Z,33.60
2019-02-07T19:42:53.056Z,33.83
2019-02-07T19:45:21.970Z,38.90
2019-02-07T19:47:50.648Z,35.03
2019-02-07T19:50:21.441Z,30.80
2019-02-07T19:52:50.364Z,34.67
2019-02-07T19:55:21.065Z,32.00
2019-02-07T19:57:49.745Z,38.73
2019-02-07T20:00:20.712Z,34.97
2019-02-07T20:02:49.758Z,38.40
2019-02-07T20:05:18.565Z,35.57
2019-02-07T20:07:47.397Z,32.80
2019-02-07T20:10:18.016Z,35.27
2019-02-07T20:12:47.218Z,37.13
2019-02-07T20:15:22.301Z,37.70
2019-02-07T20:17:50.994Z,41.17
2019-02-07T20:20:19.817Z,37.93
2019-02-07T20:22:48.585Z,34.77
2019-02-07T20:25:17.725Z,38.20
2019-02-07T20:27:46.587Z,34.23
2019-02-07T20:30:18.918Z,40.00
2019-02-07T20:32:47.612Z,36.83
2019-02-07T20:35:16.421Z,35.07
2019-02-07T20:37:45.253Z,39.43
2019-02-07T20:40:15.637Z,38.13
2019-02-07T20:42:44.308Z,35.93
2019-02-07T20:45:13.232Z,43.40
2019-02-07T20:47:42.380Z,35.87
2019-02-07T20:50:14.047Z,41.67
2019-02-07T20:52:42.815Z,39.80
2019-02-07T20:55:11.933Z,43.07
2019-02-07T20:57:40.621Z,36.00
2019-02-07T21:00:15.569Z,38.93
2019-02-07T21:02:44.629Z,37.10
2019-02-07T21:05:13.827Z,36.67
2019-02-07T21:07:42.602Z,38.03
2019-02-07T21:10:12.781Z,42.70
2019-02-07T21:12:41.457Z,39.57
2019-02-07T21:15:29.414Z,40.10
2019-02-07T21:17:58.168Z,41.20
2019-02-07T21:20:27.958Z,40.47
2019-02-07T21:22:57.752Z,37.27
2019-02-07T21:25:31.871Z,43.23
2019-02-07T21:28:00.689Z,38.13
2019-02-07T21:30:30.762Z,40.70
2019-02-07T21:32:59.603Z,47.67
2019-02-07T21:35:28.569Z,37.47
2019-02-07T21:37:57.266Z,39.63
2019-02-07T21:40:27.526Z,42.10
2019-02-07T21:42:57.286Z,42.60
2019-02-07T21:45:26.272Z,39.77
2019-02-07T21:47:55.173Z,41.70
2019-02-07T21:50:25.071Z,42.43
2019-02-07T21:52:53.853Z,44.17
2019-02-07T21:55:24.352Z,43.00
